createdAt,value
2023-04-22T00:01:45.597Z,16.67
2023-04-22T00:03:47.844Z,17.00
2023-04-22T00:05:50.200Z,17.73
2023-04-22T00:07:52.383Z,19.50
2023-04-22T00:09:54.393Z,18.20
2023-04-22T00:11:56.318Z,14.77
2023-04-22T00:13:58.408Z,15.00
2023-04-22T00:16:00.651Z,18.70
2023-04-22T00:18:03.063Z,17.47
2023-04-22T00:20:06.301Z,13.10
2023-04-22T00:22:08.390Z,15.20
2023-04-22T00:24:10.538Z,14.83
2023-04-22T00:26:12.656Z,16.20
2023-04-22T00:28:15.224Z,15.20
2023-04-22T00:30:17.295Z,19.73
2023-04-22T00:32:19.323Z,17.50
2023-04-22T00:34:21.448Z,14.00
2023-04-22T00:36:23.507Z,14.60
2023-04-22T00:38:25.552Z,14.63
2023-04-22T00:40:27.612Z,18.30
2023-04-22T00:42:29.727Z,14.60
2023-04-22T00:44:32.138Z,18.10
2023-04-22T00:46:34.353Z,20.20
2023-04-22T00:48:39.958Z,15.73
2023-04-22T00:50:42.139Z,17.60
2023-04-22T00:52:44.493Z,18.60
2023-04-22T00:54:46.842Z,19.30
2023-04-22T00:56:49.168Z,16.13
2023-04-22T00:58:51.140Z,15.33
2023-04-22T01:00:53.143Z,19.43
2023-04-22T01:02:55.852Z,14.83
2023-04-22T01:04:58.223Z,16.40
2023-04-22T01:07:00.812Z,16.80
2023-04-22T01:09:02.848Z,18.53
2023-04-22T01:11:05.277Z,17.40
2023-04-22T01:13:07.238Z,18.90
2023-04-22T01:15:09.828Z,17.30
2023-04-22T01:17:13.871Z,17.33
2023-04-22T01:19:16.372Z,20.47
2023-04-22T01:21:19.474Z,21.70
2023-04-22T01:23:22.449Z,19.57
2023-04-22T01:25:25.777Z,13.13
2023-04-22T01:27:28.469Z,19.00
2023-04-22T01:29:30.796Z,19.80
2023-04-22T01:31:33.025Z,17.80
2023-04-22T01:33:35.514Z,18.90
2023-04-22T01:35:37.898Z,17.93
2023-04-22T01:37:40.109Z,23.60
2023-04-22T01:39:42.328Z,15.80
2023-04-22T01:41:44.637Z,19.33
2023-04-22T01:43:46.800Z,21.33
2023-04-22T01:45:48.866Z,15.43
2023-04-22T01:47:51.156Z,19.17
2023-04-22T01:49:55.082Z,19.23
2023-04-22T01:51:58.433Z,18.80
2023-04-22T01:54:00.489Z,16.93
2023-04-22T01:56:02.477Z,23.50
2023-04-22T01:58:05.480Z,25.57
2023-04-22T02:00:08.610Z,18.80
2023-04-22T02:02:20.461Z,22.47
2023-04-22T02:04:22.520Z,21.80
2023-04-22T02:06:25.313Z,20.27
2023-04-22T02:08:27.425Z,16.83
2023-04-22T02:10:29.531Z,19.93
2023-04-22T02:12:32.361Z,18.73
2023-04-22T02:14:34.577Z,18.97
2023-04-22T02:16:38.399Z,19.67
2023-04-22T02:18:40.424Z,22.20
2023-04-22T02:20:44.457Z,18.07
2023-04-22T02:22:47.006Z,22.10
2023-04-22T02:24:49.263Z,17.03
2023-04-22T02:26:51.262Z,17.63
2023-04-22T02:28:53.322Z,17.73
2023-04-22T02:30:55.439Z,18.67
2023-04-22T02:32:58.280Z,21.17
2023-04-22T02:35:02.083Z,20.20
2023-04-22T02:37:04.346Z,16.20
2023-04-22T02:39:06.464Z,16.23
2023-04-22T02:41:10.636Z,16.53
2023-04-22T02:43:12.648Z,18.80
2023-04-22T02:45:14.993Z,16.10
2023-04-22T02:47:19.126Z,19.13
2023-04-22T02:49:21.131Z,21.50
2023-04-22T02:51:23.774Z,22.63
2023-04-22T02:53:25.873Z,21.80
2023-04-22T02:55:28.368Z,17.43
2023-04-22T02:57:30.663Z,19.00
2023-04-22T02:59:32.699Z,17.87
2023-04-22T03:01:34.841Z,18.60
2023-04-22T03:03:39.541Z,20.10
2023-04-22T03:05:43.799Z,18.73
2023-04-22T03:07:47.515Z,18.63
2023-04-22T03:09:51.204Z,17.83
2023-04-22T03:11:53.346Z,24.53
2023-04-22T03:13:55.588Z,20.67
2023-04-22T03:15:57.854Z,20.87
2023-04-22T03:18:00.236Z,20.63
2023-04-22T03:20:03.633Z,20.53
2023-04-22T03:22:05.671Z,20.80
2023-04-22T03:24:07.881Z,22.10
2023-04-22T03:26:10.949Z,23.20
2023-04-22T03:28:14.444Z,20.33
2023-04-22T03:30:16.660Z,18.30
2023-04-22T03:32:18.783Z,22.50
2023-04-22T03:34:21.384Z,16.70
2023-04-22T03:36:23.446Z,21.53
2023-04-22T03:38:25.811Z,18.33
2023-04-22T03:40:28.224Z,21.10
2023-04-22T03:42:30.351Z,19.63
2023-04-22T03:44:32.551Z,20.03
2023-04-22T03:46:34.696Z,24.37
2023-04-22T03:48:47.681Z,23.20
2023-04-22T03:50:59.154Z,19.37
2023-04-22T03:53:03.838Z,20.80
2023-04-22T03:55:06.227Z,20.87
2023-04-22T03:57:09.440Z,23.33
2023-04-22T03:59:11.499Z,18.50
2023-04-22T04:01:13.568Z,20.27
2023-04-22T04:03:18.899Z,19.30
2023-04-22T04:05:24.653Z,22.40
2023-04-22T04:07:26.767Z,17.53
2023-04-22T04:09:28.941Z,22.53
2023-04-22T04:11:31.639Z,20.00
2023-04-22T04:13:34.703Z,24.57
2023-04-22T04:15:50.988Z,18.20
2023-04-22T04:17:56.790Z,19.70
2023-04-22T04:20:00.630Z,21.30
2023-04-22T04:22:02.795Z,18.77
2023-04-22T04:24:09.021Z,16.37
2023-04-22T04:26:16.676Z,21.70
2023-04-22T04:28:22.074Z,29.67
2023-04-22T04:30:25.716Z,22.13
2023-04-22T04:32:29.960Z,21.13
2023-04-22T04:34:34.403Z,26.40
2023-04-22T04:36:39.947Z,20.77
2023-04-22T04:38:55.188Z,22.30
2023-04-22T04:40:58.675Z,23.60
2023-04-22T04:43:02.615Z,20.03
2023-04-22T04:45:10.807Z,24.07
2023-04-22T04:47:15.057Z,21.20
2023-04-22T04:49:17.148Z,19.27
2023-04-22T04:51:28.279Z,26.33
2023-04-22T04:53:34.272Z,24.70
2023-04-22T04:55:38.226Z,21.90
2023-04-22T04:57:46.057Z,21.80
2023-04-22T04:59:49.022Z,27.10
2023-04-22T05:01:51.535Z,19.10
2023-04-22T05:03:53.820Z,19.10
2023-04-22T05:05:56.605Z,22.30
2023-04-22T05:07:58.677Z,20.90
2023-04-22T05:10:01.368Z,21.57
2023-04-22T05:12:04.546Z,20.80
2023-04-22T05:14:06.836Z,21.53
2023-04-22T05:16:13.695Z,20.10
2023-04-22T05:18:16.003Z,17.67
2023-04-22T05:20:18.037Z,22.40
2023-04-22T05:22:20.802Z,17.70
2023-04-22T05:24:24.110Z,23.50
2023-04-22T05:26:26.523Z,20.83
2023-04-22T05:28:28.704Z,17.70
2023-04-22T05:30:32.320Z,20.07
2023-04-22T05:32:34.395Z,18.70
2023-04-22T05:34:36.639Z,17.63
2023-04-22T05:36:38.851Z,18.33
2023-04-22T05:38:40.988Z,18.27
2023-04-22T05:40:43.113Z,17.67
2023-04-22T05:42:47.648Z,15.50
2023-04-22T05:44:49.647Z,19.43
2023-04-22T05:46:51.916Z,21.37
2023-04-22T05:48:56.529Z,19.70
2023-04-22T05:51:17.579Z,16.60
2023-04-22T05:53:19.865Z,15.90
2023-04-22T05:55:21.943Z,15.10
2023-04-22T05:57:23.921Z,14.90
2023-04-22T05:59:26.641Z,14.20
2023-04-22T06:01:28.898Z,16.20
2023-04-22T06:03:37.741Z,13.27
2023-04-22T06:05:40.161Z,16.27
2023-04-22T06:07:42.601Z,15.90
2023-04-22T06:09:44.634Z,20.90
2023-04-22T06:11:46.901Z,12.67
2023-04-22T06:13:49.429Z,14.43
2023-04-22T06:15:51.885Z,13.47
2023-04-22T06:17:53.930Z,12.90
2023-04-22T06:19:56.000Z,12.67
2023-04-22T06:21:59.381Z,10.87
2023-04-22T06:24:01.439Z,12.10
2023-04-22T06:26:03.962Z,17.57
2023-04-22T06:28:06.139Z,14.67
2023-04-22T06:30:11.602Z,12.27
2023-04-22T06:32:14.740Z,12.97
2023-04-22T06:34:17.543Z,17.67
2023-04-22T06:36:19.624Z,12.77
2023-04-22T06:38:28.046Z,13.73
2023-04-22T06:40:48.321Z,11.37
2023-04-22T06:42:59.855Z,14.10
2023-04-22T06:45:40.214Z,11.30
2023-04-22T06:48:05.402Z,13.30
2023-04-22T06:50:21.241Z,12.60
2023-04-22T06:52:27.569Z,9.50
2023-04-22T06:54:32.577Z,13.70
2023-04-22T06:56:34.727Z,11.50
2023-04-22T06:58:36.706Z,16.67
2023-04-22T07:00:38.720Z,9.47
2023-04-22T07:02:41.170Z,9.60
2023-04-22T07:04:43.360Z,9.83
2023-04-22T07:06:45.952Z,9.40
2023-04-22T07:08:48.217Z,11.53
2023-04-22T07:10:50.616Z,11.37
2023-04-22T07:13:11.229Z,16.57
2023-04-22T07:15:13.429Z,9.60
2023-04-22T07:17:15.696Z,9.07
2023-04-22T07:19:17.689Z,15.97
2023-04-22T07:21:19.674Z,11.17
2023-04-22T07:23:21.697Z,12.57
2023-04-22T07:25:23.663Z,9.13
2023-04-22T07:27:25.698Z,8.77
2023-04-22T07:29:27.901Z,9.40
2023-04-22T07:31:30.170Z,14.20
2023-04-22T07:33:32.292Z,8.93
2023-04-22T07:35:34.329Z,11.63
2023-04-22T07:37:36.356Z,9.10
2023-04-22T07:39:38.672Z,9.80
2023-04-22T07:41:40.999Z,8.33
2023-04-22T07:43:43.231Z,12.20
2023-04-22T07:45:45.624Z,11.67
2023-04-22T07:47:47.911Z,9.87
2023-04-22T07:49:50.035Z,8.13
2023-04-22T07:51:52.178Z,9.50
2023-04-22T07:53:54.222Z,9.20
2023-04-22T07:55:56.510Z,8.87
2023-04-22T07:58:00.933Z,9.93
2023-04-22T08:00:03.015Z,7.57
2023-04-22T08:02:14.287Z,10.50
2023-04-22T08:04:16.655Z,9.97
2023-04-22T08:06:19.053Z,11.20
2023-04-22T08:08:21.136Z,10.13
2023-04-22T08:10:23.188Z,12.03
2023-04-22T08:12:25.361Z,7.57
2023-04-22T08:14:27.525Z,13.50
2023-04-22T08:16:29.665Z,7.50
2023-04-22T08:18:31.827Z,6.77
2023-04-22T08:20:33.790Z,17.53
2023-04-22T08:22:36.655Z,6.17
2023-04-22T08:24:38.755Z,10.63
2023-04-22T08:26:41.088Z,7.80
2023-04-22T08:28:43.205Z,9.97
2023-04-22T08:30:45.259Z,6.40
2023-04-22T08:32:47.696Z,10.70
2023-04-22T08:34:51.785Z,8.07
2023-04-22T08:36:55.958Z,13.43
2023-04-22T08:38:57.976Z,9.17
2023-04-22T08:41:00.397Z,11.63
2023-04-22T08:43:02.648Z,9.30
2023-04-22T08:45:06.492Z,8.73
2023-04-22T08:47:09.523Z,9.80
2023-04-22T08:49:11.897Z,6.47
2023-04-22T08:51:16.384Z,7.77
2023-04-22T08:53:18.521Z,9.43
2023-04-22T08:55:20.705Z,7.33
2023-04-22T08:57:22.779Z,9.50
2023-04-22T08:59:24.912Z,8.30
2023-04-22T09:01:28.451Z,7.60
2023-04-22T09:03:31.671Z,5.63
2023-04-22T09:05:34.491Z,7.53
2023-04-22T09:07:37.099Z,8.80
2023-04-22T09:09:39.475Z,7.37
2023-04-22T09:11:42.327Z,8.13
2023-04-22T09:13:44.936Z,7.10
2023-04-22T09:15:47.622Z,7.47
2023-04-22T09:17:52.216Z,6.07
2023-04-22T09:19:59.400Z,14.37
2023-04-22T09:22:01.875Z,8.80
2023-04-22T09:24:03.998Z,10.93
2023-04-22T09:26:08.103Z,5.63
2023-04-22T09:28:12.792Z,6.47
2023-04-22T09:30:14.982Z,6.67
2023-04-22T09:32:17.871Z,8.07
2023-04-22T09:34:21.926Z,10.17
2023-04-22T09:36:30.350Z,6.40
2023-04-22T09:38:32.341Z,9.60
2023-04-22T09:40:35.161Z,7.23
2023-04-22T09:42:55.370Z,6.10
2023-04-22T09:45:00.573Z,6.73
2023-04-22T09:47:03.785Z,10.63
2023-04-22T09:49:05.831Z,7.90
2023-04-22T09:51:15.912Z,7.80
2023-04-22T09:53:20.134Z,6.87
2023-04-22T09:55:24.446Z,9.67
2023-04-22T09:57:27.786Z,9.97
2023-04-22T09:59:30.490Z,10.50
2023-04-22T10:01:41.321Z,5.77
2023-04-22T10:03:44.129Z,7.70
2023-04-22T10:05:46.620Z,10.40
2023-04-22T10:07:48.920Z,6.70
2023-04-22T10:09:51.341Z,7.97
2023-04-22T10:11:55.368Z,7.07
2023-04-22T10:13:58.458Z,8.50
2023-04-22T10:16:00.940Z,5.23
2023-04-22T10:18:06.639Z,10.30
2023-04-22T10:20:13.706Z,8.83
2023-04-22T10:22:15.923Z,6.37
2023-04-22T10:24:19.339Z,7.37
2023-04-22T10:26:41.374Z,4.53
2023-04-22T10:28:44.432Z,11.20
2023-04-22T10:30:46.795Z,5.77
2023-04-22T10:32:49.037Z,7.93
2023-04-22T10:35:10.848Z,6.30
2023-04-22T10:37:14.687Z,50.37
2023-04-22T10:39:17.344Z,9.57
2023-04-22T10:41:26.094Z,7.87
2023-04-22T10:43:47.550Z,6.07
2023-04-22T10:45:50.793Z,6.57
2023-04-22T10:47:53.067Z,9.23
2023-04-22T10:50:27.775Z,7.83
2023-04-22T10:52:30.310Z,9.43
2023-04-22T10:54:36.602Z,4.13
2023-04-22T10:57:05.668Z,8.20
2023-04-22T10:59:17.293Z,6.53
2023-04-22T11:01:19.565Z,7.13
2023-04-22T11:03:27.255Z,7.33
2023-04-22T11:05:29.618Z,10.83
2023-04-22T11:07:34.312Z,14.07
2023-04-22T11:09:40.838Z,7.47
2023-04-22T11:11:43.273Z,7.87
2023-04-22T11:13:47.747Z,7.00
2023-04-22T11:15:55.595Z,5.13
2023-04-22T11:17:58.186Z,4.23
2023-04-22T11:20:01.088Z,4.23
2023-04-22T11:22:06.117Z,13.13
2023-04-22T11:24:09.896Z,12.00
2023-04-22T11:26:12.068Z,6.70
2023-04-22T11:28:14.222Z,7.27
2023-04-22T11:30:23.712Z,5.87
2023-04-22T11:32:25.946Z,4.47
2023-04-22T11:34:29.603Z,7.57
2023-04-22T11:36:31.750Z,4.03
2023-04-22T11:38:34.045Z,7.73
2023-04-22T11:40:43.038Z,6.20
2023-04-22T11:42:48.840Z,8.20
2023-04-22T11:44:51.474Z,8.77
2023-04-22T11:46:57.030Z,6.37
2023-04-22T11:49:15.516Z,14.63
2023-04-22T11:51:17.696Z,7.63
2023-04-22T11:53:23.752Z,3.53
2023-04-22T11:55:30.152Z,9.17
2023-04-22T11:57:36.299Z,4.20
2023-04-22T11:59:38.759Z,9.87
2023-04-22T12:01:42.272Z,5.03
2023-04-22T12:03:44.773Z,6.67
2023-04-22T12:05:51.588Z,6.03
2023-04-22T12:07:54.016Z,7.23
2023-04-22T12:09:56.812Z,7.17
2023-04-22T12:11:59.029Z,6.50
2023-04-22T12:14:07.488Z,4.43
2023-04-22T12:16:14.457Z,6.83
2023-04-22T12:18:16.651Z,6.50
2023-04-22T12:20:19.333Z,7.00
2023-04-22T12:22:27.845Z,7.93
2023-04-22T12:24:30.511Z,7.63
2023-04-22T12:26:32.656Z,4.20
2023-04-22T12:28:34.805Z,7.83
2023-04-22T12:30:37.121Z,6.47
2023-04-22T12:32:39.300Z,8.50
2023-04-22T12:34:41.447Z,7.07
2023-04-22T12:36:43.704Z,4.77
2023-04-22T12:38:46.146Z,4.17
2023-04-22T12:40:48.466Z,3.10
2023-04-22T12:42:50.636Z,9.17
2023-04-22T12:44:52.809Z,6.77
2023-04-22T12:46:55.059Z,7.30
2023-04-22T12:48:57.282Z,4.73
2023-04-22T12:51:00.074Z,5.30
2023-04-22T12:53:02.455Z,5.43
2023-04-22T12:55:04.857Z,3.50
2023-04-22T12:57:07.035Z,3.90
2023-04-22T12:59:09.267Z,5.63
2023-04-22T13:01:11.525Z,7.13
2023-04-22T13:03:13.826Z,4.93
2023-04-22T13:05:17.038Z,5.80
2023-04-22T13:07:19.818Z,18.77
2023-04-22T13:09:23.918Z,3.80
2023-04-22T13:11:26.068Z,4.73
2023-04-22T13:13:28.348Z,5.70
2023-04-22T13:15:31.405Z,4.10
2023-04-22T13:17:35.099Z,5.00
2023-04-22T13:19:37.494Z,4.37
2023-04-22T13:21:39.934Z,5.93
2023-04-22T13:23:42.240Z,9.33
2023-04-22T13:25:44.550Z,3.90
2023-04-22T13:27:46.761Z,6.67
2023-04-22T13:29:49.082Z,3.47
2023-04-22T13:31:51.364Z,6.37
2023-04-22T13:33:53.540Z,5.33
2023-04-22T13:35:55.842Z,7.17
2023-04-22T13:37:58.219Z,5.10
2023-04-22T13:40:00.419Z,8.40
2023-04-22T13:42:03.819Z,6.97
2023-04-22T13:44:06.151Z,6.93
2023-04-22T13:46:08.319Z,8.00
2023-04-22T13:48:10.599Z,7.67
2023-04-22T13:50:12.821Z,6.97
2023-04-22T13:52:15.013Z,3.97
2023-04-22T13:54:17.173Z,4.03
2023-04-22T13:56:19.366Z,3.60
2023-04-22T13:58:21.519Z,4.97
2023-04-22T14:00:23.816Z,9.20
2023-04-22T14:02:26.122Z,10.33
2023-04-22T14:04:28.446Z,4.60
2023-04-22T14:06:30.877Z,4.90
2023-04-22T14:08:33.064Z,4.00
2023-04-22T14:10:35.405Z,7.17
2023-04-22T14:12:38.170Z,6.30
2023-04-22T14:14:40.380Z,6.67
2023-04-22T14:16:42.604Z,5.07
2023-04-22T14:18:45.777Z,9.27
2023-04-22T14:20:48.230Z,6.23
2023-04-22T14:22:50.524Z,4.20
2023-04-22T14:24:52.762Z,5.97
2023-04-22T14:26:55.359Z,7.67
2023-04-22T14:28:57.583Z,4.93
2023-04-22T14:31:00.090Z,6.40
2023-04-22T14:33:02.924Z,3.73
2023-04-22T14:35:05.576Z,7.13
2023-04-22T14:37:07.838Z,3.37
2023-04-22T14:39:09.957Z,3.00
2023-04-22T14:41:12.353Z,4.80
2023-04-22T14:43:15.137Z,5.53
2023-04-22T14:45:17.342Z,6.10
2023-04-22T14:47:19.503Z,2.90
2023-04-22T14:49:21.660Z,4.70
2023-04-22T14:51:23.998Z,4.50
2023-04-22T14:53:26.436Z,3.63
2023-04-22T14:55:29.206Z,6.10
2023-04-22T14:57:31.437Z,5.83
2023-04-22T14:59:33.637Z,4.27
2023-04-22T15:01:37.176Z,7.60
2023-04-22T15:03:39.553Z,5.60
2023-04-22T15:05:42.679Z,3.97
2023-04-22T15:07:44.904Z,4.60
2023-04-22T15:09:47.130Z,4.37
2023-04-22T15:11:49.291Z,3.20
2023-04-22T15:13:51.601Z,6.00
2023-04-22T15:15:53.869Z,5.80
2023-04-22T15:17:56.248Z,2.90
2023-04-22T15:19:59.649Z,4.60
2023-04-22T15:22:02.212Z,5.27
2023-04-22T15:24:04.651Z,3.73
2023-04-22T15:26:06.935Z,4.60
2023-04-22T15:28:09.186Z,4.80
2023-04-22T15:30:11.865Z,29.93
2023-04-22T15:32:14.014Z,4.90
2023-04-22T15:34:16.398Z,4.83
2023-04-22T15:36:21.073Z,4.17
2023-04-22T15:38:24.672Z,5.93
2023-04-22T15:40:26.959Z,3.30
2023-04-22T15:42:29.152Z,4.63
2023-04-22T15:44:31.651Z,4.73
2023-04-22T15:46:33.850Z,4.50
2023-04-22T15:48:36.043Z,17.47
2023-04-22T15:50:40.153Z,6.90
2023-04-22T15:52:42.526Z,9.07
2023-04-22T15:54:44.739Z,27.40
2023-04-22T15:56:46.877Z,62.83
2023-04-22T15:58:49.161Z,4.27
2023-04-22T16:00:51.487Z,6.20
2023-04-22T16:02:56.597Z,5.30
2023-04-22T16:04:58.952Z,11.90
2023-04-22T16:07:01.116Z,6.97
2023-04-22T16:09:03.555Z,6.93
2023-04-22T16:11:05.952Z,6.37
2023-04-22T16:13:08.110Z,10.37
2023-04-22T16:15:11.038Z,10.00
2023-04-22T16:17:14.201Z,6.80
2023-04-22T16:19:16.435Z,10.57
2023-04-22T16:21:18.667Z,6.87
2023-04-22T16:23:21.089Z,5.93
2023-04-22T16:25:23.266Z,4.63
2023-04-22T16:27:25.644Z,9.50
2023-04-22T16:29:28.667Z,7.27
2023-04-22T16:31:30.868Z,4.67
2023-04-22T16:33:33.601Z,4.00
2023-04-22T16:35:35.980Z,16.13
2023-04-22T16:37:38.211Z,5.20
2023-04-22T16:39:40.637Z,12.33
2023-04-22T16:41:43.369Z,8.33
2023-04-22T16:43:45.680Z,7.47
2023-04-22T16:45:48.841Z,6.03
2023-04-22T16:47:51.104Z,11.50
2023-04-22T16:49:53.513Z,9.00
2023-04-22T16:51:55.715Z,8.80
2023-04-22T16:53:57.899Z,5.00
2023-04-22T16:56:00.041Z,6.00
2023-04-22T16:58:03.864Z,8.70
2023-04-22T17:00:06.719Z,15.43
2023-04-22T17:02:08.969Z,9.33
2023-04-22T17:04:11.554Z,7.17
2023-04-22T17:06:13.809Z,8.17
2023-04-22T17:08:16.488Z,14.20
2023-04-22T17:10:18.821Z,7.33
2023-04-22T17:12:21.153Z,8.23
2023-04-22T17:14:23.291Z,7.00
2023-04-22T17:16:25.520Z,5.90
2023-04-22T17:18:28.436Z,7.50
2023-04-22T17:20:30.592Z,7.00
2023-04-22T17:22:33.131Z,7.00
2023-04-22T17:24:35.809Z,5.10
2023-04-22T17:26:39.639Z,6.00
2023-04-22T17:28:41.821Z,9.00
2023-04-22T17:30:44.159Z,5.40
2023-04-22T17:32:46.435Z,7.13
2023-04-22T17:34:48.690Z,8.40
2023-04-22T17:36:50.868Z,5.10
2023-04-22T17:38:53.088Z,8.00
2023-04-22T17:40:55.403Z,5.63
2023-04-22T17:42:57.570Z,11.63
2023-04-22T17:44:59.677Z,24.20
2023-04-22T17:47:01.968Z,14.40
2023-04-22T17:49:04.200Z,10.60
2023-04-22T17:51:06.682Z,9.53
2023-04-22T17:53:08.977Z,23.17
2023-04-22T17:55:11.328Z,10.70
2023-04-22T17:57:13.502Z,11.20
2023-04-22T17:59:15.701Z,15.90
2023-04-22T18:01:18.026Z,10.63
2023-04-22T18:03:20.480Z,26.40
2023-04-22T18:05:23.071Z,18.87
2023-04-22T18:07:25.302Z,23.03
2023-04-22T18:09:27.954Z,15.03
2023-04-22T18:11:30.394Z,8.50
2023-04-22T18:13:32.980Z,8.43
2023-04-22T18:15:35.180Z,16.87
2023-04-22T18:17:37.384Z,25.13
2023-04-22T18:19:39.783Z,26.23
2023-04-22T18:21:52.922Z,31.60
2023-04-22T18:24:02.709Z,28.13
2023-04-22T18:26:09.759Z,28.77
2023-04-22T18:28:11.960Z,29.90
2023-04-22T18:30:14.236Z,15.97
2023-04-22T18:32:16.993Z,15.27
2023-04-22T18:34:19.210Z,7.40
2023-04-22T18:36:21.506Z,8.90
2023-04-22T18:38:23.744Z,7.37
2023-04-22T18:40:25.901Z,13.43
2023-04-22T18:42:28.095Z,9.10
2023-04-22T18:44:30.546Z,10.67
2023-04-22T18:46:32.681Z,12.07
2023-04-22T18:48:34.915Z,7.97
2023-04-22T18:50:37.462Z,12.70
2023-04-22T18:52:39.784Z,11.13
2023-04-22T18:54:42.241Z,9.70
2023-04-22T18:56:46.137Z,13.90
2023-04-22T18:58:50.065Z,9.30
2023-04-22T19:00:52.976Z,14.50
2023-04-22T19:02:55.222Z,20.10
2023-04-22T19:04:57.474Z,10.77
2023-04-22T19:06:59.667Z,13.60
2023-04-22T19:09:01.932Z,15.70
2023-04-22T19:11:04.265Z,14.87
2023-04-22T19:13:09.573Z,15.03
2023-04-22T19:15:19.351Z,11.00
2023-04-22T19:17:21.581Z,14.57
2023-04-22T19:19:23.815Z,13.17
2023-04-22T19:21:27.077Z,16.87
2023-04-22T19:23:29.295Z,15.90
2023-04-22T19:25:31.802Z,21.27
2023-04-22T19:27:34.579Z,29.30
2023-04-22T19:29:36.720Z,31.17
2023-04-22T19:31:40.154Z,30.83
2023-04-22T19:33:42.980Z,27.40
2023-04-22T19:35:46.340Z,30.47
2023-04-22T19:37:48.974Z,30.63
2023-04-22T19:39:51.213Z,29.90
2023-04-22T19:41:53.413Z,18.97
2023-04-22T19:43:57.874Z,20.53
2023-04-22T19:45:59.980Z,26.93
2023-04-22T19:48:02.428Z,30.47
2023-04-22T19:50:06.385Z,27.47
2023-04-22T19:52:15.492Z,27.87
2023-04-22T19:54:21.509Z,26.47
2023-04-22T19:56:24.609Z,24.47
2023-04-22T19:58:28.408Z,25.13
2023-04-22T20:00:32.198Z,19.50
2023-04-22T20:02:35.616Z,26.07
2023-04-22T20:04:38.335Z,12.87
2023-04-22T20:06:40.895Z,14.77
2023-04-22T20:08:43.502Z,18.10
2023-04-22T20:10:47.371Z,18.23
2023-04-22T20:12:49.860Z,19.47
2023-04-22T20:14:52.534Z,9.40
2023-04-22T20:16:55.151Z,12.67
2023-04-22T20:18:57.378Z,14.67
2023-04-22T20:20:59.959Z,11.70
2023-04-22T20:23:10.326Z,13.50
2023-04-22T20:25:15.452Z,12.77
2023-04-22T20:27:17.682Z,14.00
2023-04-22T20:29:22.126Z,12.20
2023-04-22T20:31:24.752Z,10.97
2023-04-22T20:33:27.037Z,13.33
2023-04-22T20:35:29.692Z,13.03
2023-04-22T20:37:32.102Z,9.17
2023-04-22T20:39:35.128Z,8.07
2023-04-22T20:41:39.319Z,8.60
2023-04-22T20:43:42.396Z,9.53
2023-04-22T20:45:44.722Z,9.37
2023-04-22T20:47:47.004Z,11.13
2023-04-22T20:49:49.306Z,12.57
2023-04-22T20:51:51.567Z,10.23
2023-04-22T20:53:55.071Z,8.40
2023-04-22T20:55:57.353Z,11.03
2023-04-22T20:57:59.606Z,17.23
2023-04-22T21:00:01.929Z,11.17
2023-04-22T21:02:07.210Z,9.70
2023-04-22T21:04:10.100Z,9.13
2023-04-22T21:06:12.459Z,19.57
2023-04-22T21:08:24.587Z,7.23
2023-04-22T21:10:29.652Z,10.30
2023-04-22T21:12:32.824Z,10.10
2023-04-22T21:14:35.295Z,12.40
2023-04-22T21:16:40.631Z,8.80
2023-04-22T21:18:44.335Z,10.33
2023-04-22T21:20:48.509Z,12.60
2023-04-22T21:22:52.142Z,10.53
2023-04-22T21:24:54.675Z,11.43
2023-04-22T21:26:58.580Z,8.73
2023-04-22T21:29:01.145Z,6.70
2023-04-22T21:31:03.638Z,12.13
2023-04-22T21:33:05.815Z,9.33
2023-04-22T21:35:08.533Z,9.83
2023-04-22T21:37:10.737Z,13.23
2023-04-22T21:39:12.916Z,8.17
2023-04-22T21:41:15.062Z,10.00
2023-04-22T21:43:17.265Z,13.43
2023-04-22T21:45:19.459Z,9.10
2023-04-22T21:47:21.608Z,8.90
2023-04-22T21:49:23.775Z,11.07
2023-04-22T21:51:27.149Z,20.67
2023-04-22T21:53:29.316Z,9.43
2023-04-22T21:55:31.917Z,12.83
2023-04-22T21:57:34.322Z,9.60
2023-04-22T21:59:36.495Z,12.27
2023-04-22T22:01:38.692Z,11.63
2023-04-22T22:03:41.260Z,9.37
2023-04-22T22:05:43.518Z,9.10
2023-04-22T22:07:45.863Z,7.80
2023-04-22T22:09:48.076Z,8.93
2023-04-22T22:11:50.281Z,8.30
2023-04-22T22:13:52.408Z,12.70
2023-04-22T22:15:56.102Z,10.53
2023-04-22T22:17:58.964Z,11.00
2023-04-22T22:20:01.239Z,12.73
2023-04-22T22:22:03.762Z,10.70
2023-04-22T22:24:09.286Z,17.53
2023-04-22T22:26:11.522Z,10.93
2023-04-22T22:28:13.844Z,11.30
2023-04-22T22:30:17.024Z,10.30
2023-04-22T22:32:19.114Z,15.43
2023-04-22T22:34:21.104Z,12.80
2023-04-22T22:36:23.717Z,15.00
2023-04-22T22:38:25.748Z,13.60
2023-04-22T22:40:27.769Z,14.80
2023-04-22T22:42:29.754Z,18.50
2023-04-22T22:44:31.871Z,13.57
2023-04-22T22:46:34.039Z,8.57
2023-04-22T22:48:36.089Z,11.97
2023-04-22T22:50:38.955Z,16.93
2023-04-22T22:52:41.257Z,11.63
2023-04-22T22:54:43.566Z,10.83
2023-04-22T22:56:45.769Z,13.47
2023-04-22T22:58:48.247Z,15.20
2023-04-22T23:00:50.293Z,14.53
2023-04-22T23:02:52.529Z,18.70
2023-04-22T23:04:54.730Z,12.40
2023-04-22T23:06:56.948Z,11.40
2023-04-22T23:08:58.939Z,14.67
2023-04-22T23:11:02.009Z,17.03
2023-04-22T23:13:04.197Z,12.50
2023-04-22T23:15:07.744Z,10.53
2023-04-22T23:17:09.844Z,17.23
2023-04-22T23:19:13.229Z,15.00
2023-04-22T23:21:17.248Z,15.87
2023-04-22T23:23:19.666Z,16.10
2023-04-22T23:25:22.118Z,15.07
2023-04-22T23:27:24.330Z,13.50
2023-04-22T23:29:26.641Z,14.67
2023-04-22T23:31:29.994Z,16.40
2023-04-22T23:33:33.700Z,12.57
2023-04-22T23:35:36.416Z,17.07
2023-04-22T23:37:39.290Z,16.47
2023-04-22T23:39:42.553Z,13.17
2023-04-22T23:41:44.870Z,15.80
2023-04-22T23:43:48.120Z,13.17
2023-04-22T23:45:50.271Z,13.63
2023-04-22T23:47:52.392Z,15.80
2023-04-22T23:49:54.518Z,12.87
2023-04-22T23:51:56.571Z,16.77
2023-04-22T23:53:58.568Z,14.63
2023-04-22T23:56:00.891Z,12.30
2023-04-22T23:58:03.034Z,12.70
